sensor_id;sensor_type;location;lat;lon;timestamp;pressure;altitude;pressure_sealevel;temperature;humidity
22018;BME280;11173;51.050;7.108;2023-04-01T00:09:11;97393.13;;;8.87;72.65
22018;BME280;11173;51.050;7.108;2023-04-01T00:19:11;97398.38;;;8.85;72.58
22018;BME280;11173;51.050;7.108;2023-04-01T00:29:11;97388.53;;;8.84;72.97
22018;BME280;11173;51.050;7.108;2023-04-01T00:39:12;97382.47;;;8.86;72.95
22018;BME280;11173;51.050;7.108;2023-04-01T00:49:13;97382.03;;;8.87;72.71
22018;BME280;11173;51.050;7.108;2023-04-01T00:59:31;97382.78;;;8.88;71.22
22018;BME280;11173;51.050;7.108;2023-04-01T01:20:14;97370.00;;;9.00;71.86
22018;BME280;11173;51.050;7.108;2023-04-01T01:30:26;97364.16;;;8.98;71.95
22018;BME280;11173;51.050;7.108;2023-04-01T01:40:34;97366.63;;;8.95;73.21
22018;BME280;11173;51.050;7.108;2023-04-01T01:50:36;97363.84;;;8.86;72.50
22018;BME280;11173;51.050;7.108;2023-04-01T02:00:37;97371.09;;;8.93;73.47
22018;BME280;11173;51.050;7.108;2023-04-01T02:10:41;97370.34;;;8.92;72.92
22018;BME280;11173;51.050;7.108;2023-04-01T02:20:44;97366.31;;;8.84;73.00
22018;BME280;11173;51.050;7.108;2023-04-01T02:30:45;97380.66;;;8.73;73.08
22018;BME280;11173;51.050;7.108;2023-04-01T02:40:50;97368.47;;;8.62;73.14
22018;BME280;11173;51.050;7.108;2023-04-01T02:50:50;97376.19;;;8.48;73.87
22018;BME280;11173;51.050;7.108;2023-04-01T03:00:51;97363.69;;;8.34;74.22
22018;BME280;11173;51.050;7.108;2023-04-01T03:10:51;97358.59;;;8.24;74.72
22018;BME280;11173;51.050;7.108;2023-04-01T03:20:51;97370.91;;;8.13;75.10
22018;BME280;11173;51.050;7.108;2023-04-01T03:30:52;97377.84;;;8.09;75.17
22018;BME280;11173;51.050;7.108;2023-04-01T03:40:52;97382.28;;;8.06;75.38
22018;BME280;11173;51.050;7.108;2023-04-01T03:50:52;97379.66;;;8.03;75.73
22018;BME280;11173;51.050;7.108;2023-04-01T04:00:53;97376.72;;;7.97;75.99
22018;BME280;11173;51.050;7.108;2023-04-01T04:10:57;97382.44;;;8.03;76.25
22018;BME280;11173;51.050;7.108;2023-04-01T04:20:57;97393.53;;;8.03;76.18
22018;BME280;11173;51.050;7.108;2023-04-01T04:30:57;97401.69;;;8.06;76.31
22018;BME280;11173;51.050;7.108;2023-04-01T04:40:58;97396.94;;;8.07;76.30
22018;BME280;11173;51.050;7.108;2023-04-01T04:50:58;97388.63;;;8.07;76.69
22018;BME280;11173;51.050;7.108;2023-04-01T05:00:59;97398.16;;;8.06;76.68
22018;BME280;11173;51.050;7.108;2023-04-01T05:11:00;97401.53;;;8.10;76.59
22018;BME280;11173;51.050;7.108;2023-04-01T05:21:01;97398.78;;;8.10;76.50
22018;BME280;11173;51.050;7.108;2023-04-01T05:31:03;97409.41;;;8.11;76.99
22018;BME280;11173;51.050;7.108;2023-04-01T05:41:04;97421.13;;;8.15;77.25
22018;BME280;11173;51.050;7.108;2023-04-01T05:51:04;97426.72;;;8.25;77.02
22018;BME280;11173;51.050;7.108;2023-04-01T06:01:07;97434.09;;;8.28;76.97
22018;BME280;11173;51.050;7.108;2023-04-01T06:11:32;97439.63;;;8.28;77.13
22018;BME280;11173;51.050;7.108;2023-04-01T06:32:13;97452.88;;;8.24;76.90
22018;BME280;11173;51.050;7.108;2023-04-01T06:52:47;97463.84;;;8.27;77.66
22018;BME280;11173;51.050;7.108;2023-04-01T07:02:55;97466.78;;;8.33;77.75
22018;BME280;11173;51.050;7.108;2023-04-01T07:13:00;97466.97;;;8.39;78.13
22018;BME280;11173;51.050;7.108;2023-04-01T07:23:05;97478.84;;;8.48;78.12
22018;BME280;11173;51.050;7.108;2023-04-01T07:33:15;97497.34;;;8.51;77.25
22018;BME280;11173;51.050;7.108;2023-04-01T07:43:42;97488.84;;;8.46;77.36
22018;BME280;11173;51.050;7.108;2023-04-01T07:54:32;97505.03;;;8.47;77.79
22018;BME280;11173;51.050;7.108;2023-04-01T08:04:27;97523.69;;;8.47;77.59
22018;BME280;11173;51.050;7.108;2023-04-01T08:14:59;97532.19;;;8.52;77.56
22018;BME280;11173;51.050;7.108;2023-04-01T08:25:04;97542.69;;;8.57;77.49
22018;BME280;11173;51.050;7.108;2023-04-01T08:35:16;97548.53;;;8.60;77.54
22018;BME280;11173;51.050;7.108;2023-04-01T08:56:02;97573.50;;;8.60;77.30
22018;BME280;11173;51.050;7.108;2023-04-01T09:06:31;97586.19;;;8.61;77.70
22018;BME280;11173;51.050;7.108;2023-04-01T09:37:17;97623.06;;;8.80;77.77
22018;BME280;11173;51.050;7.108;2023-04-01T09:47:51;97625.13;;;8.88;77.48
22018;BME280;11173;51.050;7.108;2023-04-01T10:08:46;97649.88;;;9.05;77.12
22018;BME280;11173;51.050;7.108;2023-04-01T10:18:58;97654.81;;;9.10;76.99
22018;BME280;11173;51.050;7.108;2023-04-01T10:29:35;97663.59;;;8.99;77.01
22018;BME280;11173;51.050;7.108;2023-04-01T11:21:48;97696.81;;;9.21;77.13
22018;BME280;11173;51.050;7.108;2023-04-01T11:31:37;97710.25;;;9.32;76.90
22018;BME280;11173;51.050;7.108;2023-04-01T11:41:47;97727.25;;;9.34;76.38
22018;BME280;11173;51.050;7.108;2023-04-01T12:02:29;97741.97;;;9.53;76.09
22018;BME280;11173;51.050;7.108;2023-04-01T12:12:38;97754.03;;;9.59;75.70
22018;BME280;11173;51.050;7.108;2023-04-01T12:33:18;97767.66;;;9.75;73.84
22018;BME280;11173;51.050;7.108;2023-04-01T12:43:49;97792.97;;;9.78;75.07
22018;BME280;11173;51.050;7.108;2023-04-01T12:54:16;97793.91;;;9.84;74.33
22018;BME280;11173;51.050;7.108;2023-04-01T13:04:44;97802.56;;;9.77;74.39
22018;BME280;11173;51.050;7.108;2023-04-01T13:25:54;97823.09;;;9.70;74.46
22018;BME280;11173;51.050;7.108;2023-04-01T14:07:19;97867.09;;;9.62;76.18
22018;BME280;11173;51.050;7.108;2023-04-01T14:27:43;97886.00;;;9.86;76.09
22018;BME280;11173;51.050;7.108;2023-04-01T14:38:17;97892.63;;;9.79;75.51
22018;BME280;11173;51.050;7.108;2023-04-01T14:48:31;97907.31;;;9.80;75.95
22018;BME280;11173;51.050;7.108;2023-04-01T14:58:45;97903.56;;;9.73;75.03
22018;BME280;11173;51.050;7.108;2023-04-01T15:09:02;97914.34;;;9.62;75.39
22018;BME280;11173;51.050;7.108;2023-04-01T15:19:18;97926.06;;;9.57;75.47
22018;BME280;11173;51.050;7.108;2023-04-01T15:49:36;97951.31;;;9.41;76.89
22018;BME280;11173;51.050;7.108;2023-04-01T16:20:47;97989.34;;;9.53;76.56
22018;BME280;11173;51.050;7.108;2023-04-01T16:41:31;98013.31;;;9.38;76.60
22018;BME280;11173;51.050;7.108;2023-04-01T17:02:02;98037.31;;;9.22;76.18
22018;BME280;11173;51.050;7.108;2023-04-01T17:12:16;98056.34;;;9.11;76.28
22018;BME280;11173;51.050;7.108;2023-04-01T17:22:27;98065.38;;;9.02;76.45
22018;BME280;11173;51.050;7.108;2023-04-01T17:32:42;98080.25;;;8.95;76.80
22018;BME280;11173;51.050;7.108;2023-04-01T18:13:51;98142.81;;;8.74;77.62
22018;BME280;11173;51.050;7.108;2023-04-01T18:24:30;98163.56;;;8.70;77.35
22018;BME280;11173;51.050;7.108;2023-04-01T18:34:52;98175.56;;;8.67;77.68
22018;BME280;11173;51.050;7.108;2023-04-01T18:45:03;98187.88;;;8.66;77.25
22018;BME280;11173;51.050;7.108;2023-04-01T18:55:24;98201.31;;;8.54;77.16
22018;BME280;11173;51.050;7.108;2023-04-01T19:05:40;98204.63;;;8.49;77.42
22018;BME280;11173;51.050;7.108;2023-04-01T19:25:56;98234.47;;;8.45;77.58
22018;BME280;11173;51.050;7.108;2023-04-01T19:46:14;98249.78;;;8.37;77.67
22018;BME280;11173;51.050;7.108;2023-04-01T19:56:19;98265.31;;;8.34;78.00
22018;BME280;11173;51.050;7.108;2023-04-01T20:06:46;98276.59;;;8.27;77.54
22018;BME280;11173;51.050;7.108;2023-04-01T20:16:54;98298.13;;;8.23;77.84
22018;BME280;11173;51.050;7.108;2023-04-01T20:27:20;98309.72;;;8.18;78.10
22018;BME280;11173;51.050;7.108;2023-04-01T20:37:32;98322.84;;;8.18;78.00
22018;BME280;11173;51.050;7.108;2023-04-01T20:58:13;98344.44;;;8.10;78.19
22018;BME280;11173;51.050;7.108;2023-04-01T21:08:29;98349.63;;;8.08;78.23
22018;BME280;11173;51.050;7.108;2023-04-01T21:39:54;98382.41;;;8.13;78.67
22018;BME280;11173;51.050;7.108;2023-04-01T22:00:36;98410.06;;;8.16;79.21
22018;BME280;11173;51.050;7.108;2023-04-01T22:10:43;98420.09;;;8.27;79.53
22018;BME280;11173;51.050;7.108;2023-04-01T22:21:10;98431.00;;;8.34;79.11
22018;BME280;11173;51.050;7.108;2023-04-01T22:31:19;98440.81;;;8.39;79.18
22018;BME280;11173;51.050;7.108;2023-04-01T22:51:56;98460.13;;;8.42;78.87
22018;BME280;11173;51.050;7.108;2023-04-01T23:02:02;98478.00;;;8.41;79.13
22018;BME280;11173;51.050;7.108;2023-04-01T23:12:07;98486.31;;;8.41;79.35
22018;BME280;11173;51.050;7.108;2023-04-01T23:32:23;98526.28;;;8.44;78.94
22018;BME280;11173;51.050;7.108;2023-04-01T23:42:31;98539.91;;;8.38;78.40
22018;BME280;11173;51.050;7.108;2023-04-01T23:52:58;98565.75;;;8.35;78.15
